Time;durP1;ratioP1;P1;durP2;ratioP2;P2;SDS_P1;SDS_P2;PMS_P1;PMS_P2;Temp;Humidity;BMP_temperature;BMP_pressure;BME280_temperature;BME280_humidity;BME280_pressure;Samples;Min_cycle;Max_cycle;Signal;HPM_P1;HPM_P2
2023/07/14 00:01:25;;;;;;;2.60;1.57;;;22.70;70.90;22.10;96788.00;;;;4978019;28;20195;-84
2023/07/14 00:03:53;;;;;;;2.30;1.50;;;22.70;71.00;22.10;96789.00;;;;4975898;28;20660;-83
2023/07/14 00:06:21;;;;;;;1.60;1.50;;;22.90;71.30;22.10;96793.00;;;;4976772;28;20228;-83
2023/07/14 00:08:50;;;;;;;1.60;1.50;;;22.70;71.20;22.10;96790.00;;;;4978344;28;20220;-83
2023/07/14 00:11:21;;;;;;;2.53;1.77;;;22.70;71.30;22.10;96800.00;;;;4977163;28;20259;-83
2023/07/14 00:13:51;;;;;;;1.80;1.50;;;22.70;72.20;22.10;96791.00;;;;4985708;28;20254;-83
2023/07/14 00:16:28;;;;;;;3.30;1.43;;;22.70;71.50;22.10;96788.00;;;;4973216;28;20208;-84
2023/07/14 00:18:55;;;;;;;1.63;1.53;;;22.70;71.50;22.10;96773.00;;;;4988475;28;20426;-83
2023/07/14 00:21:26;;;;;;;1.80;1.43;;;22.70;72.00;22.10;96773.00;;;;4991977;28;20208;-82
2023/07/14 00:24:02;;;;;;;2.10;1.40;;;22.70;71.90;22.10;96770.00;;;;4985773;28;20195;-83
2023/07/14 00:26:30;;;;;;;2.37;1.80;;;22.70;71.90;22.10;96778.00;;;;4981114;28;20600;-83
2023/07/14 00:28:57;;;;;;;2.60;1.50;;;22.70;72.20;22.10;96773.00;;;;4992635;28;20222;-83
2023/07/14 00:31:27;;;;;;;2.10;1.63;;;22.70;72.30;22.10;96781.00;;;;4979747;28;20204;-83
2023/07/14 00:33:55;;;;;;;1.93;1.40;;;22.60;72.20;22.00;96781.00;;;;4981389;28;20628;-83
2023/07/14 00:36:24;;;;;;;1.97;1.60;;;22.60;72.20;22.00;96782.00;;;;4986851;28;20232;-83
2023/07/14 00:38:51;;;;;;;1.67;1.50;;;22.60;72.30;22.00;96786.00;;;;4978122;28;20211;-83
2023/07/14 00:41:23;;;;;;;1.70;1.50;;;22.60;72.40;22.00;96788.00;;;;4983494;28;20210;-83
2023/07/14 00:43:53;;;;;;;1.27;1.27;;;22.60;72.50;22.00;96780.00;;;;4996104;28;20208;-83
2023/07/14 00:46:29;;;;;;;1.43;1.33;;;22.60;72.60;22.00;96774.00;;;;4982743;28;20301;-82
2023/07/14 00:49:02;;;;;;;1.50;1.40;;;22.60;72.40;22.00;96784.00;;;;4977519;28;20238;-82
2023/07/14 00:51:34;;;;;;;1.60;1.47;;;22.60;72.70;22.00;96773.00;;;;4979298;28;20281;-83
2023/07/14 00:54:02;;;;;;;1.37;1.27;;;22.60;72.80;22.00;96767.00;;;;4996650;28;20195;-83
2023/07/14 00:56:45;;;;;;;1.60;1.50;;;22.60;72.90;21.90;96765.00;;;;4975792;28;20219;-83
2023/07/14 00:59:17;;;;;;;1.60;1.50;;;22.50;72.20;21.90;96774.00;;;;4986370;28;20298;-82
2023/07/14 01:02:23;;;;;;;1.50;1.40;;;22.60;72.60;21.80;96770.00;;;;4993387;28;20287;-83
2023/07/14 01:04:56;;;;;;;2.63;1.60;;;22.50;71.80;21.80;96767.00;;;;4973765;28;20668;-83
2023/07/14 01:07:30;;;;;;;1.70;1.53;;;22.50;72.50;21.70;96772.00;;;;4988897;28;20287;-82
2023/07/14 01:10:00;;;;;;;1.87;1.30;;;22.40;72.60;21.70;96765.00;;;;4979223;28;20235;-83
2023/07/14 01:16:08;;;;;;;4.37;1.63;;;22.40;72.40;21.60;96760.00;;;;4977398;28;20830;-82
2023/07/14 01:18:37;;;;;;;3.80;1.43;;;22.40;73.00;21.60;96770.00;;;;4978173;28;20207;-83
2023/07/14 01:21:05;;;;;;;2.13;1.70;;;22.30;72.60;21.50;96764.00;;;;4977801;28;20200;-81
2023/07/14 01:23:51;;;;;;;1.53;1.53;;;22.30;72.60;21.50;96764.00;;;;4980286;28;20290;-83
2023/07/14 01:26:36;;;;;;;1.50;1.40;;;22.20;72.40;21.40;96768.00;;;;4979305;28;20311;-82
2023/07/14 01:29:05;;;;;;;4.50;1.80;;;22.20;72.60;21.40;96762.00;;;;4979540;28;20266;-82
2023/07/14 01:31:35;;;;;;;1.60;1.50;;;22.20;72.90;21.30;96762.00;;;;4983756;28;20200;-83
2023/07/14 01:34:03;;;;;;;1.47;1.37;;;22.10;73.00;21.30;96761.00;;;;4977939;28;20211;-83
2023/07/14 01:36:31;;;;;;;2.07;1.50;;;22.10;73.40;21.20;96758.00;;;;4976942;28;20215;-83
2023/07/14 01:38:58;;;;;;;1.63;1.50;;;22.00;73.60;21.20;96760.00;;;;4977040;28;20758;-83
2023/07/14 01:41:26;;;;;;;1.83;1.60;;;22.00;73.70;21.20;96769.00;;;;4977073;28;20238;-83
2023/07/14 01:43:54;;;;;;;2.20;1.90;;;21.90;73.50;21.20;96761.00;;;;4978039;28;20653;-83
2023/07/14 01:46:24;;;;;;;2.20;1.83;;;21.90;73.40;21.10;96760.00;;;;4982280;28;20304;-82
2023/07/14 01:49:09;;;;;;;3.07;2.23;;;21.90;73.10;21.00;96759.00;;;;4983737;28;20301;-82
2023/07/14 01:51:43;;;;;;;1.73;1.47;;;21.80;72.90;21.00;96757.00;;;;4981519;28;20359;-83
2023/07/14 01:54:32;;;;;;;1.70;1.60;;;21.70;73.30;20.90;96764.00;;;;4980530;28;20266;-83
2023/07/14 01:57:03;;;;;;;2.10;1.70;;;21.70;72.90;20.80;96762.00;;;;4978538;28;20589;-82
2023/07/14 01:59:38;;;;;;;1.60;1.50;;;21.60;73.40;20.80;96758.00;;;;4986330;28;20614;-83
2023/07/14 02:02:16;;;;;;;1.60;1.50;;;21.60;73.40;20.80;96754.00;;;;4981646;28;20213;-83
2023/07/14 02:04:46;;;;;;;2.10;1.87;;;21.50;73.60;20.80;96756.00;;;;4979727;28;20291;-82
2023/07/14 02:07:15;;;;;;;1.50;1.40;;;21.50;74.00;20.70;96749.00;;;;4973355;28;20220;-82
2023/07/14 02:09:44;;;;;;;1.93;1.60;;;21.40;74.00;20.70;96752.00;;;;4980578;28;20313;-82
2023/07/14 02:12:18;;;;;;;2.50;1.60;;;21.40;74.10;20.60;96741.00;;;;4980808;28;20283;-82
2023/07/14 02:14:53;;;;;;;1.80;1.67;;;21.40;74.00;20.60;96744.00;;;;4975691;28;20200;-83
2023/07/14 02:17:30;;;;;;;2.57;1.77;;;21.40;74.10;20.50;96747.00;;;;4972965;28;20218;-82
2023/07/14 02:20:03;;;;;;;2.33;1.63;;;21.30;74.30;20.50;96746.00;;;;4976779;28;20637;-82
2023/07/14 02:22:32;;;;;;;1.80;1.70;;;21.30;74.50;20.50;96748.00;;;;4978056;28;20629;-83
2023/07/14 02:25:02;;;;;;;2.03;1.70;;;21.30;74.70;20.40;96739.00;;;;4975457;28;20195;-82
2023/07/14 02:27:29;;;;;;;1.63;1.53;;;21.20;74.60;20.40;96745.00;;;;4976285;28;20227;-82
2023/07/14 02:30:01;;;;;;;2.00;1.63;;;21.20;74.50;20.40;96741.00;;;;4975705;28;20238;-83
2023/07/14 02:32:36;;;;;;;1.70;1.60;;;21.20;74.30;20.40;96739.00;;;;4980876;28;20203;-83
2023/07/14 02:35:17;;;;;;;2.90;1.90;;;21.10;74.10;20.40;96741.00;;;;4975957;28;20202;-82
2023/07/14 02:38:00;;;;;;;2.50;1.90;;;21.10;74.30;20.30;96746.00;;;;4978810;28;20219;-82
2023/07/14 02:40:37;;;;;;;2.80;1.70;;;21.10;74.60;20.30;96734.00;;;;4984608;28;20211;-83
2023/07/14 02:43:07;;;;;;;3.03;1.70;;;21.10;74.70;20.30;96739.00;;;;5004232;28;20230;-83
2023/07/14 02:45:42;;;;;;;1.80;1.70;;;21.10;74.80;20.30;96736.00;;;;4987459;28;20187;-82
2023/07/14 02:48:19;;;;;;;2.10;1.90;;;21.00;74.40;20.20;96734.00;;;;4982344;28;20237;-82
2023/07/14 02:50:46;;;;;;;2.40;1.97;;;21.00;74.40;20.20;96736.00;;;;4981497;28;20209;-82
2023/07/14 02:53:14;;;;;;;2.20;1.63;;;21.00;74.70;20.20;96743.00;;;;4981608;28;20664;-83
2023/07/14 02:55:41;;;;;;;1.90;1.80;;;21.00;74.60;20.10;96748.00;;;;4994768;28;20235;-82
2023/07/14 02:58:09;;;;;;;1.60;1.50;;;20.90;74.40;20.10;96743.00;;;;4982626;28;20217;-82
2023/07/14 03:00:36;;;;;;;2.00;1.53;;;20.90;74.40;20.10;96744.00;;;;4985539;28;20221;-82
2023/07/14 03:03:04;;;;;;;3.30;1.77;;;20.80;74.40;20.00;96733.00;;;;4982536;28;20207;-82
2023/07/14 03:05:33;;;;;;;2.60;1.70;;;20.80;74.60;20.00;96739.00;;;;4981136;28;20360;-82
2023/07/14 03:08:01;;;;;;;1.70;1.60;;;20.80;74.60;20.00;96735.00;;;;4983410;28;20238;-82
2023/07/14 03:10:29;;;;;;;1.70;1.60;;;20.70;74.60;19.90;96741.00;;;;4980461;28;20199;-82
2023/07/14 03:12:57;;;;;;;1.43;1.33;;;20.70;74.70;19.90;96739.00;;;;4982073;28;20240;-82
2023/07/14 03:15:24;;;;;;;2.43;1.43;;;20.70;74.90;19.90;96742.00;;;;4982826;28;20270;-82
2023/07/14 03:17:51;;;;;;;1.70;1.60;;;20.70;75.10;19.80;96736.00;;;;4980833;28;20203;-83
2023/07/14 03:20:19;;;;;;;1.63;1.53;;;20.70;75.00;19.80;96745.00;;;;4982772;28;20218;-83
2023/07/14 03:22:47;;;;;;;2.90;1.50;;;20.60;74.90;19.80;96743.00;;;;4982417;28;20648;-82
2023/07/14 03:25:15;;;;;;;2.70;1.60;;;20.60;74.90;19.80;96743.00;;;;4982232;28;20209;-82
2023/07/14 03:27:43;;;;;;;1.70;1.60;;;20.60;75.00;19.70;96741.00;;;;4977589;28;20245;-82
2023/07/14 03:30:11;;;;;;;1.50;1.40;;;20.50;75.80;19.70;96740.00;;;;4977513;28;20218;-83
2023/07/14 03:32:39;;;;;;;2.10;1.60;;;20.50;75.10;19.70;96742.00;;;;4980972;28;20647;-83
2023/07/14 03:35:07;;;;;;;2.03;1.50;;;20.50;75.20;19.70;96735.00;;;;4976446;28;20197;-82
2023/07/14 03:37:34;;;;;;;1.57;1.47;;;20.50;75.30;19.70;96740.00;;;;4976296;28;20721;-82
2023/07/14 03:40:05;;;;;;;2.07;1.60;;;20.50;75.50;19.70;96729.00;;;;4980571;28;20693;-82
2023/07/14 03:42:32;;;;;;;4.40;1.70;;;20.50;75.60;19.60;96728.00;;;;4978163;28;20664;-82
2023/07/14 03:45:00;;;;;;;1.67;1.40;;;20.40;75.70;19.60;96744.00;;;;4981082;28;20663;-82
2023/07/14 03:47:27;;;;;;;4.17;2.10;;;20.40;75.80;19.60;96730.00;;;;4983143;28;20229;-83
2023/07/14 03:49:54;;;;;;;2.27;1.43;;;20.40;75.80;19.60;96731.00;;;;4989126;28;20571;-82
2023/07/14 03:52:21;;;;;;;1.90;1.67;;;20.40;75.70;19.60;96730.00;;;;4982427;28;20208;-82
2023/07/14 03:54:49;;;;;;;1.63;1.53;;;20.40;75.90;19.60;96742.00;;;;4982178;28;20290;-82
2023/07/14 03:57:18;;;;;;;1.90;1.60;;;20.40;75.90;19.60;96729.00;;;;4979916;28;20246;-82
2023/07/14 03:59:46;;;;;;;1.80;1.70;;;20.40;75.90;19.60;96735.00;;;;4982300;28;20203;-82
2023/07/14 04:02:13;;;;;;;2.03;1.90;;;20.40;76.10;19.60;96729.00;;;;4986982;28;20231;-83
2023/07/14 04:04:40;;;;;;;2.73;1.93;;;20.40;76.10;19.60;96725.00;;;;4987290;28;20270;-83
2023/07/14 04:07:08;;;;;;;1.90;1.70;;;20.40;76.20;19.60;96732.00;;;;4985167;28;20227;-82
2023/07/14 04:09:35;;;;;;;4.00;2.20;;;20.40;76.20;19.60;96727.00;;;;4980761;28;20238;-82
2023/07/14 04:12:03;;;;;;;1.80;1.70;;;20.40;76.30;19.60;96725.00;;;;4979893;28;20224;-83
2023/07/14 04:14:31;;;;;;;2.20;1.87;;;20.40;76.30;19.60;96716.00;;;;4979079;28;20730;-82
2023/07/14 04:16:59;;;;;;;1.80;1.70;;;20.40;76.30;19.60;96723.00;;;;4973964;28;20703;-82
2023/07/14 04:19:26;;;;;;;2.80;1.47;;;20.40;76.40;19.60;96723.00;;;;4988100;28;20237;-80
2023/07/14 04:21:53;;;;;;;1.97;1.73;;;20.30;76.40;19.60;96719.00;;;;4983536;28;20819;-81
2023/07/14 04:24:20;;;;;;;2.77;1.87;;;20.40;76.50;19.60;96728.00;;;;4974298;28;20196;-80
2023/07/14 04:26:47;;;;;;;1.83;1.73;;;20.40;76.50;19.60;96733.00;;;;4977929;28;20313;-81
2023/07/14 04:29:15;;;;;;;1.60;1.50;;;20.40;76.50;19.60;96720.00;;;;4980370;28;20311;-80
2023/07/14 04:31:44;;;;;;;2.20;2.00;;;20.40;76.60;19.60;96734.00;;;;4986242;28;20902;-81
2023/07/14 04:34:11;;;;;;;1.57;1.47;;;20.40;76.00;19.70;96731.00;;;;4965657;28;20203;-82
2023/07/14 04:36:38;;;;;;;2.20;1.70;;;20.50;76.80;19.70;96724.00;;;;4979412;28;20815;-83
2023/07/14 04:39:08;;;;;;;3.07;1.73;;;20.50;76.80;19.70;96729.00;;;;4985646;28;20214;-83
2023/07/14 04:41:37;;;;;;;1.57;1.47;;;20.50;76.80;19.70;96724.00;;;;4978735;28;20199;-82
2023/07/14 04:44:13;;;;;;;2.50;1.80;;;20.50;77.00;19.70;96721.00;;;;4973687;28;20187;-84
2023/07/14 04:46:43;;;;;;;1.80;1.70;;;20.50;77.10;19.80;96720.00;;;;4978864;28;20230;-84
2023/07/14 04:49:12;;;;;;;2.63;2.00;;;20.50;77.30;19.80;96715.00;;;;4972542;28;20237;-85
2023/07/14 04:51:40;;;;;;;2.17;1.77;;;20.50;77.30;19.80;96715.00;;;;4973002;28;20196;-84
2023/07/14 04:54:08;;;;;;;2.00;1.73;;;20.60;77.50;19.90;96711.00;;;;4972819;28;20370;-83
2023/07/14 04:56:37;;;;;;;2.40;1.87;;;20.60;77.60;19.90;96721.00;;;;4972531;28;20301;-84
2023/07/14 04:59:07;;;;;;;2.37;2.17;;;20.60;77.80;19.90;96720.00;;;;4975100;28;20214;-83
2023/07/14 05:01:34;;;;;;;4.17;2.40;;;20.70;77.90;20.00;96718.00;;;;4976482;28;20203;-84
2023/07/14 05:04:03;;;;;;;2.57;1.97;;;20.70;78.00;20.00;96717.00;;;;4974212;28;20203;-84
2023/07/14 05:06:31;;;;;;;2.10;1.90;;;20.70;78.10;20.10;96717.00;;;;4974423;28;20215;-84
2023/07/14 05:08:58;;;;;;;2.17;2.07;;;20.70;78.30;20.10;96713.00;;;;4959079;28;20726;-84
2023/07/14 05:11:26;;;;;;;2.13;2.03;;;20.80;78.40;20.10;96708.00;;;;4975622;28;20198;-84
2023/07/14 05:13:54;;;;;;;2.97;1.93;;;20.80;78.40;20.20;96712.00;;;;4984447;28;20195;-84
2023/07/14 05:16:22;;;;;;;2.60;2.40;;;20.80;78.30;20.20;96714.00;;;;4976681;28;20219;-84
2023/07/14 05:18:49;;;;;;;2.43;2.17;;;20.90;78.30;20.30;96705.00;;;;4975757;28;20207;-84
2023/07/14 05:21:18;;;;;;;1.80;1.70;;;20.90;78.20;20.30;96700.00;;;;4974782;28;20196;-84
2023/07/14 05:23:45;;;;;;;2.20;2.00;;;21.00;78.00;20.40;96701.00;;;;4974527;28;20199;-84
2023/07/14 05:26:12;;;;;;;2.17;1.97;;;21.00;78.10;20.40;96704.00;;;;4975225;28;20219;-84
2023/07/14 05:28:39;;;;;;;2.00;1.87;;;21.00;78.20;20.50;96704.00;;;;4980860;28;20300;-83
2023/07/14 05:31:09;;;;;;;1.97;1.70;;;21.00;78.20;20.50;96699.00;;;;4979438;28;20234;-83
2023/07/14 05:33:37;;;;;;;2.00;1.90;;;21.00;78.10;20.50;96699.00;;;;4978143;28;20225;-82
2023/07/14 05:36:07;;;;;;;1.80;1.70;;;21.10;78.30;20.60;96694.00;;;;4980178;28;20258;-82
2023/07/14 05:38:37;;;;;;;1.97;1.87;;;21.20;78.40;20.60;96689.00;;;;4979336;28;20217;-82
2023/07/14 05:41:04;;;;;;;1.83;1.73;;;21.20;78.40;20.60;96687.00;;;;4980620;28;20199;-82
2023/07/14 05:43:32;;;;;;;2.00;1.77;;;21.20;78.40;20.70;96688.00;;;;4980011;28;20205;-82
2023/07/14 05:45:59;;;;;;;2.10;1.90;;;21.30;78.20;20.70;96687.00;;;;4977630;28;20712;-82
2023/07/14 05:48:27;;;;;;;4.90;2.47;;;21.30;78.10;20.80;96686.00;;;;4992445;28;20294;-83
2023/07/14 05:50:54;;;;;;;2.83;2.17;;;21.30;78.40;20.80;96690.00;;;;4977698;28;20269;-82
2023/07/14 05:53:21;;;;;;;1.93;1.83;;;21.40;78.70;20.80;96689.00;;;;4978338;28;20294;-81
2023/07/14 05:55:50;;;;;;;2.27;1.83;;;21.40;78.80;20.90;96686.00;;;;4984461;28;20215;-83
2023/07/14 05:58:18;;;;;;;3.20;1.90;;;21.50;78.80;20.90;96681.00;;;;4977941;28;20565;-82
2023/07/14 06:00:45;;;;;;;2.27;1.90;;;21.50;78.80;21.00;96686.00;;;;4979748;28;20199;-82
2023/07/14 06:03:16;;;;;;;2.87;2.43;;;21.50;78.70;21.00;96682.00;;;;4970631;28;20226;-82
2023/07/14 06:05:43;;;;;;;2.00;1.90;;;21.60;78.70;21.10;96683.00;;;;4974906;28;20520;-82
2023/07/14 06:08:10;;;;;;;2.87;2.53;;;21.60;79.50;21.10;96689.00;;;;4978482;28;20298;-83
2023/07/14 06:10:37;;;;;;;2.80;2.60;;;21.70;78.70;21.20;96691.00;;;;4984886;28;20763;-82
2023/07/14 06:13:06;;;;;;;3.93;2.40;;;21.70;78.50;21.20;96691.00;;;;4979081;28;20195;-82
2023/07/14 06:15:33;;;;;;;2.80;2.03;;;21.70;78.20;21.20;96696.00;;;;4974988;28;20214;-83
2023/07/14 06:18:01;;;;;;;2.97;2.77;;;21.80;78.50;21.30;96688.00;;;;4979009;28;20282;-83
2023/07/14 06:20:28;;;;;;;1.87;1.73;;;21.80;78.30;21.30;96698.00;;;;4982028;28;20200;-82
2023/07/14 06:22:56;;;;;;;2.47;2.27;;;21.90;78.40;21.40;96693.00;;;;4977729;28;20205;-83
2023/07/14 06:25:23;;;;;;;2.03;1.93;;;21.90;78.60;21.40;96694.00;;;;4978482;28;20200;-81
2023/07/14 06:27:50;;;;;;;2.23;2.03;;;21.90;78.80;21.50;96697.00;;;;4977417;28;20244;-83
2023/07/14 06:30:25;;;;;;;2.93;2.50;;;22.00;78.80;21.50;96694.00;;;;4978476;28;20310;-81
2023/07/14 06:32:52;;;;;;;2.50;2.30;;;22.00;78.40;21.60;96693.00;;;;4965954;28;20208;-81
2023/07/14 06:35:19;;;;;;;1.93;1.83;;;22.10;78.80;21.70;96692.00;;;;4971214;28;20203;-81
2023/07/14 06:37:47;;;;;;;2.73;2.20;;;22.20;78.80;21.70;96692.00;;;;4975059;28;20279;-81
2023/07/14 06:40:14;;;;;;;3.27;2.10;;;22.20;78.80;21.80;96685.00;;;;4975607;28;20205;-82
2023/07/14 06:42:41;;;;;;;2.53;1.97;;;22.30;78.80;21.90;96686.00;;;;4941631;28;20203;-82
2023/07/14 06:45:09;;;;;;;2.57;2.37;;;22.40;78.80;21.90;96688.00;;;;4960196;28;20200;-82
2023/07/14 06:47:39;;;;;;;1.90;1.80;;;22.40;78.50;22.00;96686.00;;;;4976648;28;20330;-83
2023/07/14 06:50:08;;;;;;;2.00;1.90;;;22.50;78.30;22.10;96684.00;;;;4977564;28;20311;-82
2023/07/14 06:52:38;;;;;;;2.83;1.87;;;22.50;78.50;22.20;96675.00;;;;4975228;28;20284;-83
2023/07/14 06:55:06;;;;;;;1.90;1.80;;;22.60;78.10;22.20;96671.00;;;;4983428;28;20206;-82
2023/07/14 06:57:33;;;;;;;2.20;1.80;;;22.70;78.10;22.30;96664.00;;;;4978758;28;20264;-81
2023/07/14 07:00:00;;;;;;;1.70;1.60;;;22.70;78.10;22.40;96667.00;;;;4978999;28;20200;-82
2023/07/14 07:02:28;;;;;;;3.80;1.90;;;22.80;78.40;22.50;96670.00;;;;4976408;28;20207;-84
2023/07/14 07:04:56;;;;;;;1.60;1.50;;;22.90;78.50;22.60;96667.00;;;;4960547;28;20198;-84
2023/07/14 07:07:24;;;;;;;2.67;1.90;;;23.00;78.00;22.70;96663.00;;;;4974635;28;20215;-84
2023/07/14 07:09:55;;;;;;;1.90;1.70;;;23.00;77.40;22.70;96672.00;;;;4977183;28;20725;-84
2023/07/14 07:12:22;;;;;;;2.17;1.70;;;23.10;77.50;22.90;96670.00;;;;4973004;28;20199;-84
2023/07/14 07:14:49;;;;;;;2.20;1.63;;;23.20;77.40;23.00;96677.00;;;;4969749;28;20203;-84
2023/07/14 07:17:17;;;;;;;1.70;1.60;;;23.30;77.40;23.10;96672.00;;;;4978926;28;20245;-84
2023/07/14 07:19:44;;;;;;;1.60;1.50;;;23.40;77.10;23.20;96676.00;;;;4972123;28;20243;-84
2023/07/14 07:22:13;;;;;;;1.43;1.33;;;23.50;77.20;23.40;96672.00;;;;4971378;28;20201;-84
2023/07/14 07:24:40;;;;;;;1.70;1.30;;;23.60;76.40;23.40;96671.00;;;;4973326;28;20191;-84
2023/07/14 07:27:08;;;;;;;1.43;1.33;;;23.80;76.10;23.60;96671.00;;;;4972060;28;20235;-83
2023/07/14 07:29:35;;;;;;;1.40;1.30;;;23.90;75.20;23.70;96668.00;;;;4971996;28;20739;-84
2023/07/14 07:32:03;;;;;;;1.50;1.23;;;24.00;75.30;23.80;96669.00;;;;4977321;28;20203;-84
2023/07/14 07:34:30;;;;;;;1.23;1.13;;;24.10;75.30;23.90;96663.00;;;;4972828;28;20547;-84
2023/07/14 07:36:58;;;;;;;1.03;1.03;;;24.20;75.10;24.00;96653.00;;;;4975142;28;20225;-84
2023/07/14 07:39:27;;;;;;;1.60;1.10;;;24.30;74.90;24.20;96660.00;;;;4964967;28;20269;-83
2023/07/14 07:41:54;;;;;;;2.13;1.30;;;24.50;74.60;24.30;96662.00;;;;4972631;28;20231;-84
2023/07/14 07:44:22;;;;;;;0.90;0.90;;;24.60;74.30;24.40;96661.00;;;;4972884;28;20294;-84
2023/07/14 07:46:49;;;;;;;1.10;1.10;;;24.70;74.10;24.60;96653.00;;;;4972575;28;20218;-84
2023/07/14 07:49:16;;;;;;;0.93;0.93;;;24.90;74.20;24.70;96649.00;;;;4971357;28;20196;-84
2023/07/14 07:51:43;;;;;;;1.03;1.03;;;25.00;74.00;24.80;96655.00;;;;4971697;28;20290;-83
2023/07/14 07:54:11;;;;;;;1.17;1.10;;;25.10;73.60;24.90;96651.00;;;;4972501;28;20275;-84
2023/07/14 07:56:43;;;;;;;1.20;1.10;;;25.20;72.80;25.10;96649.00;;;;4979313;28;20663;-84
2023/07/14 07:59:10;;;;;;;1.23;1.20;;;25.40;72.30;25.20;96646.00;;;;4972048;28;20222;-83
2023/07/14 08:01:37;;;;;;;1.60;1.33;;;25.50;71.90;25.30;96643.00;;;;4973876;28;20199;-83
2023/07/14 08:04:05;;;;;;;1.30;1.17;;;25.60;72.00;25.50;96638.00;;;;4971029;28;20262;-84
2023/07/14 08:06:34;;;;;;;3.03;1.40;;;25.80;71.20;25.60;96641.00;;;;4970488;28;20223;-83
2023/07/14 08:09:01;;;;;;;1.23;1.23;;;25.90;71.30;25.80;96640.00;;;;4969704;28;20322;-84
2023/07/14 08:11:28;;;;;;;1.67;1.57;;;26.00;71.00;25.90;96635.00;;;;4968435;28;20231;-84
2023/07/14 08:13:58;;;;;;;1.67;1.33;;;26.20;70.70;26.00;96621.00;;;;4970788;28;20198;-84
2023/07/14 08:16:26;;;;;;;2.70;1.40;;;26.30;69.80;26.10;96620.00;;;;4969514;28;20219;-84
2023/07/14 08:18:53;;;;;;;1.47;1.27;;;26.40;69.50;26.30;96622.00;;;;4980042;28;20210;-84
2023/07/14 08:21:20;;;;;;;1.70;1.43;;;26.50;69.20;26.40;96618.00;;;;4972256;28;20207;-84
2023/07/14 08:23:47;;;;;;;1.07;1.07;;;26.70;68.50;26.50;96620.00;;;;4975914;28;20567;-83
2023/07/14 08:26:15;;;;;;;1.73;1.27;;;26.80;67.60;26.60;96619.00;;;;4976678;28;20772;-83
2023/07/14 08:28:42;;;;;;;1.27;1.10;;;26.90;68.00;26.70;96620.00;;;;4975541;28;20204;-84
2023/07/14 08:31:15;;;;;;;2.53;1.58;;;27.00;67.90;26.90;96619.00;;;;4962934;28;20646;-84
2023/07/14 08:33:44;;;;;;;1.48;1.20;;;27.10;66.20;27.00;96619.00;;;;4976571;28;20622;-84
2023/07/14 08:36:13;;;;;;;1.25;1.15;;;27.30;67.80;27.20;96621.00;;;;4975008;28;20586;-84
2023/07/14 08:38:41;;;;;;;1.98;1.50;;;27.40;68.10;27.30;96623.00;;;;4979769;28;20687;-81
2023/07/14 08:41:24;;;;;;;1.50;1.40;;;27.50;68.20;27.50;96629.00;;;;4980751;28;20263;-83
2023/07/14 08:44:39;;;;;;;1.75;1.20;;;27.70;66.60;27.70;96626.00;;;;4980874;28;20214;-83
2023/07/14 08:47:15;;;;;;;1.33;1.23;;;27.80;65.30;27.90;96624.00;;;;4974613;28;20717;-83
2023/07/14 08:49:51;;;;;;;1.38;1.27;;;28.10;66.40;28.00;96621.00;;;;4981299;28;20199;-82
2023/07/14 08:52:25;;;;;;;1.65;1.48;;;28.20;65.30;28.10;96623.00;;;;4977573;28;20283;-82
2023/07/14 08:55:03;;;;;;;1.23;1.13;;;28.30;64.70;28.20;96620.00;;;;4976449;28;20232;-82
2023/07/14 08:57:39;;;;;;;1.35;1.17;;;28.40;63.70;28.40;96614.00;;;;4978011;28;20311;-83
2023/07/14 09:00:17;;;;;;;1.42;1.33;;;28.60;64.70;28.50;96621.00;;;;4978527;28;20195;-84
2023/07/14 09:03:03;;;;;;;1.45;1.25;;;28.70;63.40;28.60;96617.00;;;;4973737;28;20206;-83
2023/07/14 09:05:35;;;;;;;1.33;1.23;;;28.80;61.50;28.70;96618.00;;;;4974529;28;20203;-83
2023/07/14 09:08:03;;;;;;;2.33;1.40;;;28.90;63.50;28.80;96613.00;;;;4975963;28;20196;-84
2023/07/14 09:10:42;;;;;;;1.30;1.20;;;29.00;64.30;28.90;96612.00;;;;4973848;28;20223;-83
2023/07/14 09:13:28;;;;;;;1.73;1.25;;;29.10;62.40;29.00;96611.00;;;;4960022;28;20613;-83
2023/07/14 09:15:57;;;;;;;1.80;1.45;;;29.20;61.50;29.10;96609.00;;;;4972987;28;20227;-83
2023/07/14 09:18:48;;;;;;;1.50;1.40;;;29.30;62.70;29.20;96606.00;;;;4976443;28;20209;-83
2023/07/14 09:21:24;;;;;;;2.17;1.33;;;29.40;60.60;29.30;96601.00;;;;4977062;28;20203;-83
2023/07/14 09:24:15;;;;;;;1.98;1.30;;;29.50;61.20;29.40;96605.00;;;;4976395;28;20203;-83
2023/07/14 09:26:47;;;;;;;1.30;1.17;;;29.60;60.10;29.50;96600.00;;;;4974132;28;20302;-83
2023/07/14 09:29:19;;;;;;;2.28;1.20;;;29.70;59.60;29.70;96605.00;;;;4974995;28;20199;-83
2023/07/14 09:31:56;;;;;;;2.05;1.30;;;29.80;59.30;29.80;96593.00;;;;4974792;28;20309;-83
2023/07/14 09:34:33;;;;;;;1.67;1.15;;;30.00;59.50;29.90;96595.00;;;;4969772;28;20323;-83
2023/07/14 09:37:02;;;;;;;1.30;1.20;;;30.10;59.10;30.00;96591.00;;;;4972810;28;20218;-83
2023/07/14 09:39:43;;;;;;;1.55;1.45;;;30.30;59.70;30.10;96589.00;;;;4973039;28;20207;-83
2023/07/14 09:42:27;;;;;;;0.93;0.88;;;30.30;58.40;30.30;96591.00;;;;4974320;28;20206;-84
2023/07/14 09:45:08;;;;;;;2.20;1.10;;;30.50;58.80;30.40;96591.00;;;;4969598;28;20226;-83
2023/07/14 09:47:36;;;;;;;1.10;0.90;;;30.60;58.60;30.50;96597.00;;;;4972660;28;20229;-83
2023/07/14 09:50:09;;;;;;;0.80;0.80;;;30.80;58.60;30.60;96603.00;;;;4972864;28;20238;-83
2023/07/14 09:52:51;;;;;;;1.05;1.00;;;30.90;57.80;30.70;96587.00;;;;4972828;28;20209;-83
2023/07/14 09:55:20;;;;;;;1.00;0.98;;;31.10;55.90;30.80;96587.00;;;;4970158;28;20267;-84
2023/07/14 09:57:52;;;;;;;1.02;1.00;;;31.20;57.50;30.90;96582.00;;;;4975039;28;20578;-84
2023/07/14 10:00:24;;;;;;;2.97;1.08;;;31.40;56.10;31.00;96575.00;;;;4971043;28;20215;-84
2023/07/14 10:03:04;;;;;;;1.60;0.98;;;31.50;55.90;31.00;96574.00;;;;4970344;28;20195;-84
2023/07/14 10:05:47;;;;;;;0.90;0.90;;;31.60;55.30;31.10;96575.00;;;;4976393;28;20191;-83
2023/07/14 10:08:33;;;;;;;0.80;0.80;;;31.60;53.50;31.10;96573.00;;;;4971823;28;20203;-84
2023/07/14 10:11:20;;;;;;;1.80;0.90;;;31.70;53.80;31.20;96571.00;;;;4972995;28;20229;-85
2023/07/14 10:13:55;;;;;;;0.90;0.90;;;31.80;55.80;31.30;96571.00;;;;4974545;28;20202;-85
2023/07/14 10:16:23;;;;;;;1.75;0.80;;;32.00;55.20;31.40;96567.00;;;;4975582;28;20699;-83
2023/07/14 10:18:55;;;;;;;0.90;0.90;;;32.10;55.50;31.50;96569.00;;;;4974425;28;20225;-84
2023/07/14 10:21:52;;;;;;;1.98;1.20;;;32.30;56.00;31.70;96561.00;;;;4977029;28;20206;-84
2023/07/14 10:24:21;;;;;;;0.95;0.80;;;32.40;53.40;31.80;96554.00;;;;4971350;28;20199;-84
2023/07/14 10:27:08;;;;;;;1.05;0.77;;;32.60;55.10;31.80;96552.00;;;;4973297;28;20230;-84
2023/07/14 10:29:47;;;;;;;1.27;1.00;;;32.70;53.10;31.90;96554.00;;;;4967914;28;20238;-83
2023/07/14 10:32:27;;;;;;;1.58;0.80;;;32.80;52.00;32.00;96554.00;;;;4980793;28;20596;-84
2023/07/14 10:35:02;;;;;;;1.10;0.80;;;32.90;53.30;32.00;96547.00;;;;4973827;28;20207;-83
2023/07/14 10:37:38;;;;;;;1.20;0.90;;;33.00;53.10;32.10;96543.00;;;;4973203;28;20745;-82
2023/07/14 10:40:14;;;;;;;0.60;0.60;;;33.00;51.50;32.20;96536.00;;;;4981091;28;20205;-82
2023/07/14 10:42:53;;;;;;;0.98;0.77;;;33.00;52.40;32.30;96541.00;;;;4980336;28;20218;-83
2023/07/14 10:45:21;;;;;;;0.70;0.70;;;33.10;52.00;32.30;96536.00;;;;4969786;28;20604;-83
2023/07/14 10:47:55;;;;;;;1.50;0.82;;;33.10;52.80;32.40;96530.00;;;;4976250;28;20206;-82
2023/07/14 10:50:31;;;;;;;0.65;0.60;;;33.10;52.40;32.40;96535.00;;;;4983475;28;20298;-82
2023/07/14 10:53:12;;;;;;;0.98;0.90;;;33.10;52.10;32.40;96529.00;;;;4981847;28;20664;-82
2023/07/14 10:55:44;;;;;;;0.80;0.80;;;33.10;51.60;32.50;96525.00;;;;4976617;28;20254;-83
2023/07/14 10:58:35;;;;;;;1.88;0.80;;;33.20;52.20;32.50;96523.00;;;;4972993;28;20198;-83
2023/07/14 11:01:11;;;;;;;0.70;0.60;;;33.10;50.90;32.50;96515.00;;;;4977253;28;20245;-83
2023/07/14 11:03:44;;;;;;;1.58;0.73;;;33.10;51.30;32.50;96515.00;;;;4977708;28;20261;-83
2023/07/14 11:06:18;;;;;;;1.08;0.68;;;33.10;50.40;32.50;96508.00;;;;4970948;28;20222;-83
2023/07/14 11:08:53;;;;;;;1.73;0.80;;;33.00;49.60;32.40;96506.00;;;;4974732;28;20191;-84
2023/07/14 11:11:31;;;;;;;1.35;0.90;;;32.90;49.80;32.30;96504.00;;;;4971523;28;20710;-84
2023/07/14 11:14:20;;;;;;;0.80;0.60;;;32.80;49.20;32.20;96503.00;;;;4971975;28;20568;-84
2023/07/14 11:16:59;;;;;;;0.85;0.70;;;32.70;49.20;32.10;96507.00;;;;4974248;28;20736;-84